Time;durP1;ratioP1;P1;durP2;ratioP2;P2;SDS_P1;SDS_P2;PMS_P1;PMS_P2;Temp;Humidity;BMP_temperature;BMP_pressure;BME280_temperature;BME280_humidity;BME280_pressure;Samples;Min_cycle;Max_cycle;Signal;HPM_P1;HPM_P2
2022/10/04 00:08:13;;;;;;;0.40;0.40;;;;;;;15.06;53.02;100802.25;18487542;32;20147;-58
2022/10/04 00:18:29;;;;;;;0.40;0.40;;;;;;;14.88;53.60;100818.28;18496396;32;20089;-58
2022/10/04 00:28:44;;;;;;;0.20;0.20;;;;;;;14.91;54.02;100821.72;18496863;32;20101;-58
2022/10/04 00:39:02;;;;;;;0.30;0.30;;;;;;;14.77;54.85;100824.53;18497022;32;20350;-58
2022/10/04 00:49:07;;;;;;;0.40;0.40;;;;;;;14.67;55.72;100812.38;18496070;32;20085;-58
2022/10/04 00:59:25;;;;;;;0.40;0.40;;;;;;;14.24;57.68;100809.38;18495862;32;20444;-58
2022/10/04 01:09:30;;;;;;;0.32;0.32;;;;;;;14.15;57.61;100801.62;18356244;32;20144;-58
2022/10/04 01:19:34;;;;;;;0.65;0.65;;;;;;;13.96;58.09;100804.44;18366741;32;20190;-58
2022/10/04 01:29:39;;;;;;;0.30;0.30;;;;;;;13.99;58.17;100804.38;18495305;32;20100;-58
2022/10/04 01:39:42;;;;;;;0.40;0.40;;;;;;;13.65;59.71;100794.19;18494788;32;20139;-58
2022/10/04 01:49:47;;;;;;;0.30;0.30;;;;;;;14.06;59.32;100776.31;18494408;32;20479;-58
2022/10/04 01:59:53;;;;;;;0.40;0.40;;;;;;;14.57;58.00;100791.47;18495519;32;20100;-58
2022/10/04 02:10:01;;;;;;;0.43;0.43;;;;;;;14.59;57.96;100787.97;18493782;32;20350;-58
2022/10/04 02:20:11;;;;;;;0.40;0.40;;;;;;;14.46;58.78;100792.50;18493333;32;20372;-58
2022/10/04 02:30:15;;;;;;;0.40;0.40;;;;;;;14.42;59.11;100781.19;18493431;32;20107;-58
2022/10/04 02:40:21;;;;;;;0.30;0.30;;;;;;;14.42;59.04;100781.19;18492285;32;20097;-58
2022/10/04 02:50:31;;;;;;;0.30;0.30;;;;;;;14.33;59.46;100762.91;18492562;32;20092;-58
2022/10/04 03:00:46;;;;;;;0.40;0.40;;;;;;;14.54;58.97;100760.00;18491990;32;20098;-58
2022/10/04 03:10:50;;;;;;;0.50;0.50;;;;;;;14.39;59.35;100766.31;18491309;32;20697;-58
2022/10/04 03:20:53;;;;;;;0.30;0.30;;;;;;;14.12;60.16;100763.13;18490676;32;20116;-58
2022/10/04 03:30:58;;;;;;;0.30;0.30;;;;;;;14.07;60.29;100764.06;18490044;32;20111;-58
2022/10/04 03:41:02;;;;;;;0.32;0.32;;;;;;;14.36;59.45;100781.25;18489496;32;20100;-58
2022/10/04 03:51:08;;;;;;;1.15;1.08;;;;;;;14.17;59.94;100772.69;18494107;32;20111;-58
2022/10/04 04:01:17;;;;;;;0.37;0.37;;;;;;;13.83;61.59;100776.53;18497871;32;20357;-58
2022/10/04 04:11:24;;;;;;;0.40;0.40;;;;;;;13.85;61.48;100790.53;18498181;32;20118;-58
2022/10/04 04:21:28;;;;;;;0.37;0.37;;;;;;;13.41;62.70;100803.97;18497079;32;20429;-58
2022/10/04 04:31:36;;;;;;;0.32;0.32;;;;;;;13.60;61.89;100788.97;18496797;32;20111;-58
2022/10/04 04:41:39;;;;;;;0.40;0.40;;;;;;;13.75;61.63;100797.62;18496585;32;20103;-58
2022/10/04 04:51:50;;;;;;;0.30;0.30;;;;;;;13.81;62.25;100815.06;18496310;32;20412;-58
2022/10/04 05:01:53;;;;;;;0.40;0.40;;;;;;;13.68;62.99;100809.94;18495197;32;20096;-58
2022/10/04 05:12:06;;;;;;;0.73;0.73;;;;;;;13.96;63.00;100814.91;18495026;32;20140;-58
2022/10/04 05:22:11;;;;;;;0.30;0.30;;;;;;;14.23;62.21;100831.28;18496267;32;20158;-58
2022/10/04 05:32:24;;;;;;;0.52;0.52;;;;;;;14.29;62.33;100846.09;18494829;32;20453;-58
2022/10/04 05:42:37;;;;;;;0.50;0.50;;;;;;;14.94;60.15;100834.84;18495533;32;20382;-58
2022/10/04 05:52:41;;;;;;;0.40;0.40;;;;;;;14.64;61.20;100847.44;18492471;32;20127;-58
2022/10/04 06:03:06;;;;;;;0.40;0.40;;;;;;;14.95;60.36;100848.84;18493901;32;20482;-58
2022/10/04 06:13:20;;;;;;;0.30;0.30;;;;;;;14.98;60.59;100852.31;18493009;32;20157;-58
2022/10/04 06:23:23;;;;;;;0.40;0.40;;;;;;;15.09;60.26;100870.59;18473306;32;20089;-58
2022/10/04 06:33:38;;;;;;;0.30;0.30;;;;;;;15.44;59.74;100889.38;18487369;32;20121;-58
2022/10/04 06:43:50;;;;;;;0.37;0.37;;;;;;;15.58;60.00;100893.56;18495889;32;20190;-58
2022/10/04 06:54:03;;;;;;;0.40;0.40;;;;;;;15.81;59.16;100909.00;18495351;32;20096;-57
2022/10/04 07:04:17;;;;;;;0.30;0.30;;;;;;;15.83;58.64;100917.72;18492261;32;20144;-58
2022/10/04 07:14:25;;;;;;;0.40;0.40;;;;;;;15.86;58.28;100924.72;18490564;32;20096;-58
2022/10/04 07:24:38;;;;;;;0.30;0.30;;;;;;;16.01;57.98;100913.09;18495368;32;20098;-58
2022/10/04 07:34:45;;;;;;;0.30;0.30;;;;;;;16.47;57.38;100929.88;18500829;32;20106;-60
2022/10/04 07:44:59;;;;;;;0.28;0.28;;;;;;;17.05;55.55;100932.31;18499444;32;20146;-58
2022/10/04 07:55:12;;;;;;;0.30;0.30;;;;;;;17.03;55.12;100949.94;18495964;32;20464;-58
2022/10/04 08:05:21;;;;;;;0.30;0.30;;;;;;;17.11;55.32;100949.78;18497188;32;20154;-58
2022/10/04 08:15:35;;;;;;;0.32;0.32;;;;;;;17.01;54.09;100954.34;18432733;32;20540;-58
2022/10/04 08:25:44;;;;;;;0.30;0.30;;;;;;;16.91;54.50;100972.97;18460102;32;20373;-58
2022/10/04 08:36:00;;;;;;;0.30;0.30;;;;;;;16.86;55.65;100974.84;18495411;32;20111;-58
2022/10/04 08:46:30;;;;;;;0.20;0.20;;;;;;;17.35;54.24;100972.13;18494780;32;20092;-59
2022/10/04 08:56:49;;;;;;;0.20;0.20;;;;;;;17.68;53.62;100990.75;18495281;32;20108;-59
2022/10/04 09:07:03;;;;;;;0.20;0.20;;;;;;;18.01;52.31;100972.41;18293250;32;20133;-59
2022/10/04 09:17:20;;;;;;;0.20;0.20;;;;;;;18.66;50.09;100975.19;18303416;32;20145;-59
2022/10/04 09:27:40;;;;;;;0.20;0.20;;;;;;;19.54;48.14;100992.16;18477071;32;20139;-58
2022/10/04 09:38:37;;;;;;;0.10;0.10;;;;;;;19.71;46.15;100983.69;18429494;32;20118;-59
2022/10/04 09:48:43;;;;;;;0.20;0.20;;;;;;;19.99;44.43;100982.84;18164887;32;20118;-59
2022/10/04 09:59:17;;;;;;;0.20;0.20;;;;;;;19.82;44.10;100991.31;18181795;32;20109;-59
2022/10/04 10:20:25;;;;;;;0.20;0.20;;;;;;;19.78;47.11;100993.19;18174536;32;20117;-59
2022/10/04 10:30:31;;;;;;;0.20;0.20;;;;;;;19.66;45.41;101002.38;18312935;32;20141;-59
2022/10/04 10:40:53;;;;;;;0.20;0.20;;;;;;;19.25;46.01;101004.47;18481649;32;20157;-60
2022/10/04 10:51:02;;;;;;;0.10;0.10;;;;;;;19.59;45.37;100997.31;18487333;32;20455;-60
2022/10/04 11:01:31;;;;;;;0.20;0.20;;;;;;;19.59;44.46;100992.03;18464280;32;20104;-59
2022/10/04 11:11:48;;;;;;;0.20;0.20;;;;;;;19.47;43.82;101010.03;18458262;32;81781;-59
2022/10/04 11:22:29;;;;;;;0.20;0.20;;;;;;;19.06;46.55;101025.28;18478220;32;20487;-59
2022/10/04 11:33:19;;;;;;;0.17;0.17;;;;;;;18.91;47.80;101022.16;18482337;32;20139;-59
2022/10/04 11:43:37;;;;;;;0.20;0.20;;;;;;;18.92;46.94;101023.00;18485222;32;20096;-59
2022/10/04 11:54:02;;;;;;;0.20;0.20;;;;;;;19.58;44.90;101016.78;18471214;32;20104;-59
2022/10/04 12:04:30;;;;;;;0.10;0.10;;;;;;;19.92;44.06;101005.16;18488152;32;20120;-59
2022/10/04 12:14:43;;;;;;;0.17;0.17;;;;;;;20.12;46.49;101011.62;18453359;32;20113;-60
2022/10/04 12:25:14;;;;;;;0.20;0.20;;;;;;;19.89;44.36;101005.22;18495499;32;20108;-59
2022/10/04 12:35:24;;;;;;;0.20;0.20;;;;;;;19.72;45.18;101017.19;18496740;32;20361;-58
2022/10/04 12:45:46;;;;;;;0.20;0.20;;;;;;;19.55;45.51;101007.13;18495766;32;20092;-59
2022/10/04 12:56:07;;;;;;;0.20;0.20;;;;;;;19.89;44.90;101008.75;18495351;32;20097;-59
2022/10/04 13:06:18;;;;;;;0.20;0.20;;;;;;;20.03;42.20;100994.22;18494917;32;20421;-59
2022/10/04 13:16:34;;;;;;;0.20;0.20;;;;;;;20.02;42.05;101003.09;18495409;32;20103;-59
2022/10/04 13:27:03;;;;;;;0.10;0.10;;;;;;;20.05;41.75;100995.91;18495593;32;20119;-59
2022/10/04 13:37:21;;;;;;;0.10;0.10;;;;;;;20.22;41.21;101002.44;18491464;32;20219;-59
2022/10/04 13:47:55;;;;;;;0.10;0.10;;;;;;;20.25;41.19;101004.97;18491686;32;20111;-59
2022/10/04 13:58:09;;;;;;;0.10;0.10;;;;;;;20.45;40.70;101020.22;18492632;32;20112;-59
2022/10/04 14:08:50;;;;;;;0.20;0.20;;;;;;;20.84;40.75;101034.00;18493397;32;20146;-59
2022/10/04 14:19:30;;;;;;;0.10;0.10;;;;;;;20.70;40.18;101029.13;18427020;32;20143;-59
2022/10/04 14:30:17;;;;;;;0.10;0.10;;;;;;;20.63;39.72;101039.94;18459910;32;20097;-59
2022/10/04 14:40:33;;;;;;;0.10;0.10;;;;;;;20.36;41.70;101039.94;18274168;32;20136;-58
2022/10/04 14:50:47;;;;;;;0.10;0.10;;;;;;;20.16;41.64;101043.28;18272116;32;20109;-59
2022/10/04 15:01:13;;;;;;;0.10;0.10;;;;;;;19.90;42.77;101062.59;18241890;32;20098;-59
2022/10/04 15:11:19;;;;;;;0.10;0.10;;;;;;;19.76;42.85;101060.34;18290456;32;20137;-58
2022/10/04 15:22:02;;;;;;;0.20;0.20;;;;;;;19.57;43.60;101068.00;18425303;32;20119;-59
2022/10/04 15:32:06;;;;;;;;;;;;;;;19.49;44.05;101069.09;18175695;32;20115;-58
2022/10/04 15:42:14;;;;;;;0.20;0.20;;;;;;;19.53;44.03;101083.97;18225916;32;20019;-58
2022/10/04 15:52:42;;;;;;;0.15;0.15;;;;;;;19.42;44.12;101086.06;18231787;32;20149;-58
2022/10/04 16:03:15;;;;;;;0.20;0.20;;;;;;;18.99;45.22;101110.12;18409116;32;20208;-58
2022/10/04 16:13:42;;;;;;;0.20;0.20;;;;;;;18.60;46.02;101117.28;18436713;32;20107;-58
2022/10/04 16:23:47;;;;;;;0.30;0.30;;;;;;;18.17;47.34;101141.16;18435635;32;20097;-58
2022/10/04 16:33:58;;;;;;;1.65;0.43;;;;;;;18.06;47.81;101144.03;18435074;32;20492;-58
2022/10/04 16:44:03;;;;;;;0.30;0.30;;;;;;;17.71;48.96;101149.13;18433301;32;20085;-58
2022/10/04 16:54:28;;;;;;;0.40;0.30;;;;;;;17.48;49.51;101165.41;18435414;32;20103;-58
2022/10/04 17:04:55;;;;;;;0.30;0.30;;;;;;;17.11;51.94;101171.34;18434345;32;20159;-58
2022/10/04 17:15:26;;;;;;;0.35;0.35;;;;;;;16.80;53.13;101193.78;18419908;32;20105;-58
2022/10/04 17:25:35;;;;;;;0.62;0.62;;;;;;;16.47;54.05;101202.16;18434264;32;20379;-58
2022/10/04 17:35:58;;;;;;;0.30;0.30;;;;;;;15.93;55.92;101213.37;18433842;32;20175;-58
2022/10/04 17:46:14;;;;;;;0.30;0.30;;;;;;;15.30;58.00;101222.75;18433653;32;20162;-58
2022/10/04 17:56:26;;;;;;;0.40;0.40;;;;;;;15.05;58.44;101231.72;18434094;32;20420;-58
2022/10/04 18:06:35;;;;;;;0.90;0.55;;;;;;;14.73;59.31;101247.69;18430777;32;20440;-58
2022/10/04 18:16:46;;;;;;;1.55;0.65;;;;;;;14.36;60.13;101259.25;18424561;32;20470;-58
2022/10/04 18:27:03;;;;;;;0.37;0.37;;;;;;;14.15;60.88;101250.56;18463264;32;20102;-58
2022/10/04 18:37:19;;;;;;;0.40;0.40;;;;;;;13.64;62.83;101272.53;18417686;32;20089;-59
2022/10/04 18:47:31;;;;;;;0.52;0.50;;;;;;;13.40;63.36;101274.28;18418400;32;20096;-58
2022/10/04 19:01:58;;;;;;;0.68;0.68;;;;;;;13.39;63.12;101284.75;18431098;32;20093;-58
2022/10/04 19:08:07;;;;;;;0.40;0.40;;;;;;;13.14;63.44;101308.34;18430216;32;20112;-58
2022/10/04 19:18:38;;;;;;;2.12;1.37;;;;;;;13.00;63.69;101317.03;18429477;32;20130;-58
2022/10/04 19:28:43;;;;;;;0.70;0.70;;;;;;;12.67;64.43;101323.94;18451806;32;20167;-58
2022/10/04 19:38:54;;;;;;;2.92;0.82;;;;;;;12.59;64.26;101339.59;18493172;32;20361;-58
2022/10/04 19:48:59;;;;;;;0.63;0.63;;;;;;;12.37;65.33;101348.25;18478192;32;20101;-58
2022/10/04 19:59:06;;;;;;;0.88;0.80;;;;;;;12.28;64.86;101360.41;18477395;32;20127;-58
2022/10/04 20:09:25;;;;;;;0.50;0.50;;;;;;;12.04;64.69;101372.44;18491172;32;20102;-58
2022/10/04 20:19:38;;;;;;;0.40;0.40;;;;;;;11.90;65.30;101374.97;18491068;32;20096;-58
2022/10/04 20:30:04;;;;;;;2.85;0.70;;;;;;;11.73;64.97;101380.03;18492510;32;20097;-58
2022/10/04 20:40:08;;;;;;;0.62;0.62;;;;;;;11.62;65.08;101393.03;18500120;32;20421;-58
2022/10/04 20:50:19;;;;;;;0.98;0.90;;;;;;;11.48;64.91;101400.75;18499375;32;20092;-58
2022/10/04 21:00:24;;;;;;;0.50;0.50;;;;;;;11.26;65.40;101417.03;18498906;32;20547;-58
2022/10/04 21:10:30;;;;;;;0.70;0.70;;;;;;;11.17;65.49;101420.44;18485131;32;20511;-58
2022/10/04 21:20:44;;;;;;;0.50;0.50;;;;;;;11.18;64.88;101428.28;18498561;32;20433;-58
2022/10/04 21:30:49;;;;;;;0.55;0.55;;;;;;;10.59;66.55;101427.53;18484790;32;20420;-58
2022/10/04 21:40:52;;;;;;;0.52;0.52;;;;;;;10.59;65.58;101435.34;18497882;32;20100;-58
2022/10/04 21:50:56;;;;;;;0.50;0.50;;;;;;;10.61;65.58;101440.59;18497730;32;20093;-58
2022/10/04 22:00:59;;;;;;;1.40;1.30;;;;;;;10.47;65.20;101451.69;18498450;32;20096;-57
2022/10/04 22:11:04;;;;;;;0.47;0.47;;;;;;;10.45;64.84;101453.41;18496790;32;20385;-57
2022/10/04 22:21:07;;;;;;;0.60;0.60;;;;;;;9.87;66.12;101459.41;18495420;32;20108;-57
2022/10/04 22:31:13;;;;;;;0.50;0.50;;;;;;;9.96;65.90;101469.12;18497512;32;20088;-57
2022/10/04 22:41:18;;;;;;;0.65;0.65;;;;;;;9.93;65.87;101475.19;18496303;32;20111;-57
2022/10/04 22:51:22;;;;;;;1.27;1.08;;;;;;;9.82;65.47;101477.56;18494791;32;20183;-57
2022/10/04 23:01:26;;;;;;;1.10;1.10;;;;;;;9.60;66.22;101480.66;18495387;32;20115;-57
2022/10/04 23:11:32;;;;;;;0.85;0.80;;;;;;;9.46;67.07;101489.06;18494559;32;20179;-57
2022/10/04 23:21:37;;;;;;;0.50;0.50;;;;;;;9.68;66.26;101495.56;18494877;32;20150;-57
2022/10/04 23:31:42;;;;;;;0.50;0.50;;;;;;;9.57;66.34;101503.19;18494152;32;20166;-57
2022/10/04 23:41:45;;;;;;;0.73;0.73;;;;;;;9.54;66.24;101523.97;18493345;32;20096;-57
2022/10/04 23:51:54;;;;;;;0.77;0.77;;;;;;;9.50;65.93;101527.38;18492443;32;20089;-57
